createdAt,value
2023-05-10T00:03:59.102Z,63.40
2023-05-10T00:08:07.506Z,63.65
2023-05-10T00:12:15.767Z,63.81
2023-05-10T00:16:24.044Z,64.32
2023-05-10T00:20:31.420Z,64.41
2023-05-10T00:24:39.947Z,64.77
2023-05-10T00:28:47.711Z,64.89
2023-05-10T00:32:55.690Z,64.97
2023-05-10T00:37:03.813Z,65.21
2023-05-10T00:41:11.982Z,65.23
2023-05-10T00:45:20.295Z,65.36
2023-05-10T00:49:28.442Z,65.64
2023-05-10T00:53:38.029Z,65.94
2023-05-10T00:57:45.936Z,66.11
2023-05-10T01:01:53.830Z,66.25
2023-05-10T01:06:01.873Z,66.53
2023-05-10T01:10:11.813Z,66.84
2023-05-10T01:14:22.570Z,66.97
2023-05-10T01:18:31.415Z,66.86
2023-05-10T01:22:55.531Z,67.06
2023-05-10T01:27:20.948Z,67.01
2023-05-10T01:31:38.128Z,67.44
2023-05-10T01:35:53.246Z,67.48
2023-05-10T01:40:06.424Z,67.85
2023-05-10T01:44:22.249Z,68.27
2023-05-10T01:48:31.555Z,68.28
2023-05-10T01:52:43.416Z,68.66
2023-05-10T01:56:52.992Z,68.67
2023-05-10T02:01:02.826Z,69.04
2023-05-10T02:05:11.723Z,69.29
2023-05-10T02:09:20.573Z,69.41
2023-05-10T02:13:30.228Z,69.79
2023-05-10T02:17:39.874Z,69.85
2023-05-10T02:21:47.259Z,70.23
2023-05-10T02:25:56.141Z,70.09
2023-05-10T02:30:04.074Z,70.28
2023-05-10T02:34:12.399Z,70.50
2023-05-10T02:38:21.728Z,70.77
2023-05-10T02:42:31.383Z,70.91
2023-05-10T02:46:39.583Z,71.08
2023-05-10T02:50:52.547Z,71.21
2023-05-10T02:55:05.378Z,71.33
2023-05-10T02:59:16.083Z,71.41
2023-05-10T03:03:24.029Z,71.27
2023-05-10T03:07:32.115Z,71.42
2023-05-10T03:11:50.721Z,71.77
2023-05-10T03:16:05.069Z,72.17
2023-05-10T03:20:15.968Z,72.15
2023-05-10T03:24:25.655Z,72.06
2023-05-10T03:28:37.724Z,72.24
2023-05-10T03:32:45.662Z,72.55
2023-05-10T03:36:53.050Z,72.80
2023-05-10T03:41:00.988Z,72.72
2023-05-10T03:45:11.850Z,73.04
2023-05-10T03:49:19.936Z,73.06
2023-05-10T03:53:28.030Z,73.14
2023-05-10T03:57:35.506Z,73.08
2023-05-10T04:01:43.597Z,72.95
2023-05-10T04:05:51.038Z,73.28
2023-05-10T04:09:59.328Z,73.11
2023-05-10T04:14:06.796Z,73.18
2023-05-10T04:18:14.997Z,73.51
2023-05-10T04:22:22.990Z,73.46
2023-05-10T04:26:30.760Z,73.27
2023-05-10T04:30:39.645Z,73.34
2023-05-10T04:34:48.052Z,73.41
2023-05-10T04:38:56.231Z,73.39
2023-05-10T04:43:04.252Z,72.95
2023-05-10T04:47:12.924Z,73.07
2023-05-10T04:51:21.684Z,72.87
2023-05-10T04:55:30.092Z,72.53
2023-05-10T04:59:40.208Z,72.52
2023-05-10T05:03:47.878Z,72.40
2023-05-10T05:07:57.352Z,72.07
2023-05-10T05:12:04.953Z,71.77
2023-05-10T05:16:14.023Z,71.30
2023-05-10T05:20:22.297Z,71.20
2023-05-10T05:24:29.912Z,70.86
2023-05-10T05:28:39.011Z,69.90
2023-05-10T05:32:48.305Z,69.36
2023-05-10T05:36:56.773Z,68.64
2023-05-10T05:41:05.115Z,68.60
2023-05-10T05:45:14.539Z,67.15
2023-05-10T05:49:25.370Z,66.65
2023-05-10T05:53:33.492Z,65.96
2023-05-10T05:57:42.051Z,66.10
2023-05-10T06:01:50.966Z,65.30
2023-05-10T06:05:58.888Z,64.94
2023-05-10T06:10:08.405Z,64.33
2023-05-10T06:14:16.143Z,63.53
2023-05-10T06:18:24.526Z,62.73
2023-05-10T06:22:33.026Z,62.27
2023-05-10T06:26:40.616Z,61.65
2023-05-10T06:30:49.063Z,61.18
2023-05-10T06:34:57.256Z,60.62
2023-05-10T06:39:05.020Z,59.46
2023-05-10T06:43:13.197Z,58.74
2023-05-10T06:47:21.613Z,58.99
2023-05-10T06:51:29.656Z,58.89
2023-05-10T06:55:37.362Z,57.95
2023-05-10T06:59:45.680Z,56.63
2023-05-10T07:03:53.986Z,56.72
2023-05-10T07:08:02.735Z,56.19
2023-05-10T07:12:14.693Z,55.92
2023-05-10T07:16:23.282Z,55.40
2023-05-10T07:20:31.164Z,54.37
2023-05-10T07:24:39.861Z,53.36
2023-05-10T07:28:51.250Z,53.06
2023-05-10T07:32:58.965Z,53.22
2023-05-10T07:37:07.378Z,53.42
2023-05-10T07:41:15.689Z,52.45
2023-05-10T07:45:24.529Z,52.18
2023-05-10T07:49:32.075Z,51.94
2023-05-10T07:53:40.280Z,51.03
2023-05-10T07:57:47.932Z,51.11
2023-05-10T08:01:55.674Z,51.25
2023-05-10T08:06:03.423Z,50.48
2023-05-10T08:10:13.642Z,50.12
2023-05-10T08:14:21.214Z,51.12
2023-05-10T08:18:29.591Z,51.35
2023-05-10T08:22:37.448Z,50.27
2023-05-10T08:26:56.960Z,50.92
2023-05-10T08:31:13.852Z,50.76
2023-05-10T08:35:25.415Z,49.96
2023-05-10T08:39:40.792Z,49.77
2023-05-10T08:43:53.271Z,48.97
2023-05-10T08:48:03.609Z,48.93
2023-05-10T08:52:19.685Z,49.06
2023-05-10T08:56:35.321Z,48.58
2023-05-10T09:00:47.518Z,48.73
2023-05-10T09:04:55.703Z,49.33
2023-05-10T09:09:04.404Z,48.43
2023-05-10T09:13:13.968Z,48.08
2023-05-10T09:17:22.153Z,47.45
2023-05-10T09:21:30.811Z,47.90
2023-05-10T09:25:39.757Z,46.81
2023-05-10T09:29:47.531Z,47.41
2023-05-10T09:33:56.094Z,46.62
2023-05-10T09:38:05.346Z,46.34
2023-05-10T09:42:14.065Z,46.81
2023-05-10T09:46:22.504Z,46.61
2023-05-10T09:50:31.633Z,46.49
2023-05-10T09:54:39.385Z,47.09
2023-05-10T09:58:47.306Z,46.26
2023-05-10T10:03:00.992Z,46.03
2023-05-10T10:07:11.486Z,45.87
2023-05-10T10:11:19.436Z,45.70
2023-05-10T10:15:28.608Z,44.90
2023-05-10T10:19:37.626Z,44.74
2023-05-10T10:23:46.431Z,45.57
2023-05-10T10:28:05.040Z,44.42
2023-05-10T10:32:24.660Z,44.12
2023-05-10T10:36:34.488Z,43.78
2023-05-10T10:40:42.538Z,43.90
2023-05-10T10:44:50.652Z,43.53
2023-05-10T10:49:14.608Z,43.86
2023-05-10T10:53:22.364Z,44.77
2023-05-10T10:57:31.337Z,44.50
2023-05-10T11:01:38.968Z,44.95
2023-05-10T11:05:47.934Z,42.63
2023-05-10T11:09:59.128Z,42.85
2023-05-10T11:14:09.401Z,43.12
2023-05-10T11:18:25.163Z,42.99
2023-05-10T11:22:33.441Z,42.85
2023-05-10T11:26:41.232Z,42.63
2023-05-10T11:30:48.699Z,41.99
2023-05-10T11:34:56.716Z,42.55
2023-05-10T11:39:05.012Z,41.49
2023-05-10T11:43:13.813Z,39.21
2023-05-10T11:47:22.883Z,39.03
2023-05-10T11:51:32.450Z,36.39
2023-05-10T11:55:40.295Z,37.83
2023-05-10T11:59:48.223Z,38.08
2023-05-10T12:03:59.900Z,38.21
2023-05-10T12:08:18.462Z,37.11
2023-05-10T12:12:26.320Z,38.44
2023-05-10T12:16:34.619Z,38.30
2023-05-10T12:20:43.604Z,38.02
2023-05-10T12:24:52.313Z,37.75
2023-05-10T12:29:16.843Z,37.99
2023-05-10T12:33:24.766Z,38.67
2023-05-10T12:37:37.942Z,38.52
2023-05-10T12:41:46.506Z,37.72
2023-05-10T12:45:54.330Z,37.57
2023-05-10T12:50:04.098Z,38.03
2023-05-10T12:54:11.877Z,38.69
2023-05-10T12:58:31.968Z,38.69
2023-05-10T13:02:43.469Z,39.22
2023-05-10T13:06:51.274Z,39.38
2023-05-10T13:11:04.033Z,39.24
2023-05-10T13:15:14.345Z,39.47
2023-05-10T13:19:22.582Z,39.70
2023-05-10T13:23:31.538Z,39.70
2023-05-10T13:27:39.663Z,39.32
2023-05-10T13:31:49.373Z,38.21
2023-05-10T13:35:57.419Z,39.21
2023-05-10T13:40:05.474Z,38.37
2023-05-10T13:44:14.137Z,37.80
2023-05-10T13:48:22.181Z,38.59
2023-05-10T13:52:30.728Z,38.42
2023-05-10T13:56:39.348Z,39.31
2023-05-10T14:00:47.921Z,39.70
2023-05-10T14:04:56.098Z,39.64
2023-05-10T14:09:03.972Z,38.94
2023-05-10T14:13:11.532Z,38.57
2023-05-10T14:17:19.621Z,39.86
2023-05-10T14:21:27.685Z,39.96
2023-05-10T14:25:36.027Z,39.79
2023-05-10T14:29:43.758Z,39.48
2023-05-10T14:33:51.846Z,39.15
2023-05-10T14:38:00.269Z,39.59
2023-05-10T14:42:08.334Z,38.89
2023-05-10T14:46:17.279Z,38.34
2023-05-10T14:54:42.060Z,37.88
2023-05-10T14:58:50.030Z,38.02
2023-05-10T15:02:58.989Z,37.95
2023-05-10T15:07:08.743Z,38.03
2023-05-10T15:11:19.199Z,38.53
2023-05-10T15:15:27.052Z,38.07
2023-05-10T15:19:35.667Z,38.26
2023-05-10T15:23:43.675Z,38.04
2023-05-10T15:27:51.412Z,37.60
2023-05-10T15:31:59.323Z,38.16
2023-05-10T15:36:09.021Z,37.93
2023-05-10T15:40:17.643Z,38.38
2023-05-10T15:44:26.311Z,38.51
2023-05-10T15:48:34.136Z,38.22
2023-05-10T15:52:42.459Z,38.66
2023-05-10T15:56:50.568Z,38.58
2023-05-10T16:00:59.168Z,38.77
2023-05-10T16:05:08.882Z,39.01
2023-05-10T16:09:17.551Z,38.60
2023-05-10T16:13:28.038Z,38.17
2023-05-10T16:17:35.723Z,38.34
2023-05-10T16:21:43.588Z,37.34
2023-05-10T16:25:51.533Z,36.87
2023-05-10T16:30:02.368Z,37.80
2023-05-10T16:34:10.640Z,37.74
2023-05-10T16:38:18.415Z,38.20
2023-05-10T16:42:26.647Z,38.59
2023-05-10T16:46:35.158Z,39.30
2023-05-10T16:50:46.048Z,39.06
2023-05-10T16:54:53.941Z,39.04
2023-05-10T16:59:03.967Z,39.15
2023-05-10T17:03:12.726Z,39.30
2023-05-10T17:07:22.650Z,38.82
2023-05-10T17:11:32.407Z,38.77
2023-05-10T17:15:41.412Z,39.25
2023-05-10T17:19:50.102Z,39.37
2023-05-10T17:23:57.866Z,39.65
2023-05-10T17:28:06.995Z,39.86
2023-05-10T17:32:14.652Z,40.28
2023-05-10T17:36:22.931Z,41.03
2023-05-10T17:40:30.888Z,41.13
2023-05-10T17:44:39.286Z,41.28
2023-05-10T17:48:47.306Z,41.80
2023-05-10T17:52:55.336Z,42.38
2023-05-10T17:57:03.853Z,42.72
2023-05-10T18:01:12.655Z,43.26
2023-05-10T18:05:21.896Z,43.58
2023-05-10T18:09:32.390Z,43.83
2023-05-10T18:13:40.818Z,44.29
2023-05-10T18:17:48.883Z,44.63
2023-05-10T18:21:56.758Z,44.81
2023-05-10T18:26:04.756Z,45.44
2023-05-10T18:30:14.853Z,45.87
2023-05-10T18:34:22.766Z,46.38
2023-05-10T18:38:31.469Z,46.62
2023-05-10T18:42:39.303Z,46.65
2023-05-10T18:46:46.815Z,46.75
2023-05-10T18:50:55.526Z,46.87
2023-05-10T18:55:06.884Z,46.94
2023-05-10T18:59:16.768Z,47.13
2023-05-10T19:03:24.224Z,47.22
2023-05-10T19:07:32.749Z,47.37
2023-05-10T19:11:40.220Z,47.41
2023-05-10T19:15:48.803Z,47.53
2023-05-10T19:19:57.750Z,47.36
2023-05-10T19:24:05.665Z,47.28
2023-05-10T19:28:13.655Z,47.58
2023-05-10T19:32:22.950Z,47.44
2023-05-10T19:36:31.253Z,47.60
2023-05-10T19:40:39.062Z,47.74
2023-05-10T19:44:47.393Z,48.08
2023-05-10T19:48:59.362Z,48.10
2023-05-10T19:53:09.795Z,48.02
2023-05-10T19:57:19.159Z,48.53
2023-05-10T20:01:27.059Z,48.63
2023-05-10T20:05:35.509Z,49.13
2023-05-10T20:09:43.320Z,49.43
2023-05-10T20:13:50.915Z,49.64
2023-05-10T20:17:58.739Z,49.36
2023-05-10T20:22:09.420Z,49.36
2023-05-10T20:26:17.172Z,49.57
2023-05-10T20:30:25.451Z,49.88
2023-05-10T20:34:33.789Z,49.86
2023-05-10T20:38:41.332Z,50.15
2023-05-10T20:42:49.792Z,50.33
2023-05-10T20:46:57.135Z,50.63
2023-05-10T20:51:06.770Z,50.71
2023-05-10T20:55:15.030Z,51.26
2023-05-10T20:59:23.665Z,52.48
2023-05-10T21:03:33.484Z,53.20
2023-05-10T21:07:41.497Z,53.64
2023-05-10T21:11:49.838Z,54.12
2023-05-10T21:15:59.378Z,54.58
2023-05-10T21:20:08.434Z,54.96
2023-05-10T21:24:16.966Z,54.53
2023-05-10T21:28:25.189Z,54.24
2023-05-10T21:32:34.536Z,55.79
2023-05-10T21:36:42.213Z,56.32
2023-05-10T21:40:50.089Z,56.82
2023-05-10T21:44:59.215Z,57.31
2023-05-10T21:49:07.224Z,57.75
2023-05-10T21:53:15.206Z,58.10
2023-05-10T21:57:23.225Z,58.64
2023-05-10T22:01:31.290Z,58.99
2023-05-10T22:05:39.209Z,59.29
2023-05-10T22:09:47.337Z,59.78
2023-05-10T22:13:55.208Z,59.87
2023-05-10T22:18:03.501Z,60.09
2023-05-10T22:22:11.380Z,60.12
2023-05-10T22:26:19.385Z,60.47
2023-05-10T22:30:27.125Z,59.98
2023-05-10T22:34:35.589Z,59.78
2023-05-10T22:38:48.535Z,59.84
2023-05-10T22:42:59.080Z,59.83
2023-05-10T22:47:09.604Z,59.48
2023-05-10T22:51:17.329Z,59.26
2023-05-10T22:55:25.259Z,59.30
2023-05-10T22:59:33.331Z,59.25
2023-05-10T23:03:41.251Z,59.28
2023-05-10T23:07:53.345Z,59.11
2023-05-10T23:12:01.306Z,59.16
2023-05-10T23:16:12.220Z,58.67
2023-05-10T23:20:20.470Z,58.62
2023-05-10T23:24:29.411Z,58.67
2023-05-10T23:28:37.205Z,59.16
2023-05-10T23:32:45.292Z,58.74
2023-05-10T23:36:52.913Z,59.17
2023-05-10T23:41:00.668Z,59.31
2023-05-10T23:45:10.050Z,59.65
2023-05-10T23:49:18.572Z,59.76
2023-05-10T23:53:27.104Z,59.64
2023-05-10T23:57:36.441Z,59.83
